Time;durP1;ratioP1;P1;durP2;ratioP2;P2;SDS_P1;SDS_P2;PMS_P1;PMS_P2;Temp;Humidity;BMP_temperature;BMP_pressure;BME280_temperature;BME280_humidity;BME280_pressure;Samples;Min_cycle;Max_cycle;Signal;HPM_P1;HPM_P2
2023/01/31 00:00:06;;;;;;;;;;;;;;;2.26;100.00;100976.81;5030108;28;20324;-57
2023/01/31 00:02:32;;;;;;;;;;;;;;;2.17;100.00;100971.81;5029678;28;20423;-56
2023/01/31 00:04:57;;;;;;;;;;;;;;;2.09;100.00;100978.63;5045202;28;20023;-57
2023/01/31 00:07:22;;;;;;;;;;;;;;;2.00;100.00;100978.66;5046727;28;20308;-57
2023/01/31 00:09:47;;;;;;;;;;;;;;;1.96;100.00;100985.47;5051894;28;19955;-57
2023/01/31 00:12:12;;;;;;;;;;;;;;;1.88;100.00;100988.00;5038600;28;19959;-57
2023/01/31 00:14:38;;;;;;;;;;;;;;;1.84;100.00;100988.88;5051808;28;20372;-57
2023/01/31 00:17:03;;;;;;;;;;;;;;;1.78;100.00;100992.28;5037158;28;19978;-57
2023/01/31 00:19:28;;;;;;;;;;;;;;;1.73;100.00;100994.00;5051746;28;20345;-56
2023/01/31 00:21:53;;;;;;;;;;;;;;;1.74;100.00;100983.00;5038028;28;19948;-57
2023/01/31 00:24:18;;;;;;;;;;;;;;;1.75;100.00;100982.16;5050931;28;19924;-57
2023/01/31 00:26:43;;;;;;;;;;;;;;;1.66;100.00;100973.72;5050954;28;20358;-57
2023/01/31 00:29:09;;;;;;;;;;;;;;;1.58;100.00;100971.22;5033270;28;19917;-57
2023/01/31 00:31:34;;;;;;;;;;;;;;;1.58;100.00;100968.69;5028059;28;19944;-57
2023/01/31 00:33:59;;;;;;;;;;;;;;;1.48;100.00;100974.63;5038022;28;19917;-57
2023/01/31 00:36:26;;;;;;;;;;;;;;;1.46;100.00;100974.63;5051278;28;19917;-57
2023/01/31 00:38:53;;;;;;;;;;;;;;;1.47;100.00;100995.78;5051419;28;19923;-57
2023/01/31 00:41:19;;;;;;;;;;;;;;;1.45;100.00;100991.56;5042169;28;19925;-56
2023/01/31 00:43:44;;;;;;;;;;;;;;;1.47;100.00;100991.53;5053773;28;19924;-55
2023/01/31 00:46:09;;;;;;;;;;;;;;;1.48;100.00;100993.22;5054916;28;20360;-55
2023/01/31 00:48:34;;;;;;;;;;;;;;;1.49;100.00;100989.84;5055571;28;19917;-55
2023/01/31 00:51:00;;;;;;;;;;;;;;;1.43;100.00;100987.34;5043907;28;20360;-55
2023/01/31 00:53:25;;;;;;;;;;;;;;;1.42;100.00;100994.06;5053046;28;20352;-55
2023/01/31 00:55:51;;;;;;;;;;;;;;;1.45;100.00;100985.63;5054490;28;19920;-58
2023/01/31 00:58:16;;;;;;;;;;;;;;;1.44;100.00;100989.03;5046993;28;19971;-55
2023/01/31 01:00:41;;;;;;;;;;;;;;;1.42;100.00;100990.72;5038905;28;19928;-54
2023/01/31 01:03:06;;;;;;;;;;;;;;;1.34;100.00;100992.41;5054168;28;19971;-55
2023/01/31 01:05:32;;;;;;;;;;;;;;;1.34;100.00;101000.00;5055006;28;20003;-55
2023/01/31 01:07:57;;;;;;;;;;;;;;;1.38;100.00;100991.59;5053561;28;20047;-55
2023/01/31 01:10:22;;;;;;;;;;;;;;;1.49;100.00;100994.06;5042307;28;19921;-55
2023/01/31 01:12:47;;;;;;;;;;;;;;;1.51;100.00;100999.97;5040450;28;19928;-55
2023/01/31 01:15:12;;;;;;;;;;;;;;;1.52;100.00;101004.22;5054417;28;19997;-55
2023/01/31 01:17:37;;;;;;;;;;;;;;;1.45;100.00;101009.31;5054292;28;19928;-55
2023/01/31 01:20:03;;;;;;;;;;;;;;;1.41;100.00;101006.75;5046403;28;19924;-56
2023/01/31 01:22:29;;;;;;;;;;;;;;;1.39;100.00;101011.84;5020822;28;20345;-55
2023/01/31 01:24:54;;;;;;;;;;;;;;;1.33;100.00;101009.31;5048498;28;19992;-55
2023/01/31 01:27:19;;;;;;;;;;;;;;;1.30;100.00;101014.38;5054208;28;20004;-55
2023/01/31 01:29:44;;;;;;;;;;;;;;;1.44;100.00;101010.16;5054641;28;20434;-56
2023/01/31 01:32:10;;;;;;;;;;;;;;;1.58;100.00;101020.25;5042903;28;19921;-55
2023/01/31 01:34:36;;;;;;;;;;;;;;;1.63;100.00;101012.63;5036203;28;19971;-57
2023/01/31 01:37:08;;;;;;;;;;;;;;;1.69;100.00;101012.63;5053999;28;20412;-54
2023/01/31 01:39:33;;;;;;;;;;;;;;;1.72;100.00;101011.75;5036280;28;19947;-56
2023/01/31 01:41:59;;;;;;;;;;;;;;;1.82;100.00;101017.66;5035210;28;20407;-55
2023/01/31 01:44:39;;;;;;;;;;;;;;;1.90;100.00;101015.94;5048140;28;19916;-55
2023/01/31 01:47:11;;;;;;;;;;;;;;;2.00;100.00;101011.63;5053976;28;20335;-56
2023/01/31 01:49:36;;;;;;;;;;;;;;;2.10;100.00;101009.06;5054343;28;20349;-55
2023/01/31 01:52:04;;;;;;;;;;;;;;;2.25;100.00;101009.84;5042334;28;19963;-55
2023/01/31 01:54:42;;;;;;;;;;;;;;;2.41;100.00;101013.13;5039126;28;20427;-57
2023/01/31 01:57:07;;;;;;;;;;;;;;;2.47;100.00;101007.16;5053655;28;20332;-57
2023/01/31 01:59:42;;;;;;;;;;;;;;;2.50;100.00;101008.00;5041292;28;19917;-56
2023/01/31 02:02:08;;;;;;;;;;;;;;;2.60;100.00;101011.31;5025963;28;19939;-55
2023/01/31 02:04:36;;;;;;;;;;;;;;;2.63;100.00;101008.78;5035759;28;20303;-55
2023/01/31 02:07:02;;;;;;;;;;;;;;;2.68;100.00;101012.13;5035475;28;19920;-55
2023/01/31 02:09:48;;;;;;;;;;;;;;;2.72;100.00;101015.47;5053731;28;19943;-55
2023/01/31 02:12:13;;;;;;;;;;;;;;;2.69;100.00;101016.34;5039573;28;19921;-55
2023/01/31 02:14:39;;;;;;;;;;;;;;;2.74;100.00;101017.16;5053676;28;20061;-55
2023/01/31 02:17:04;;;;;;;;;;;;;;;2.83;100.00;101017.91;5053079;28;20002;-56
2023/01/31 02:19:47;;;;;;;;;;;;;;;2.81;100.00;101012.03;5053427;28;20440;-55
2023/01/31 02:22:18;;;;;;;;;;;;;;;2.80;100.00;101013.72;5024799;28;19921;-55
2023/01/31 02:25:03;;;;;;;;;;;;;;;2.68;100.00;101017.19;5046356;28;19932;-57
2023/01/31 02:27:28;;;;;;;;;;;;;;;2.59;100.00;101012.16;5035279;28;19924;-55
2023/01/31 02:29:53;;;;;;;;;;;;;;;2.50;100.00;101004.63;5053398;28;19924;-55
2023/01/31 02:32:37;;;;;;;;;;;;;;;2.45;100.00;100998.72;5039985;28;20038;-55
2023/01/31 02:35:21;;;;;;;;;;;;;;;2.36;100.00;100989.47;5052973;28;19923;-54
2023/01/31 02:38:11;;;;;;;;;;;;;;;2.35;100.00;100987.78;5034824;28;19917;-56
2023/01/31 02:40:48;;;;;;;;;;;;;;;2.28;100.00;100979.34;5033155;28;19968;-55
2023/01/31 02:43:29;;;;;;;;;;;;;;;2.20;100.00;100983.66;5051008;28;19921;-55
2023/01/31 02:46:09;;;;;;;;;;;;;;;2.13;100.00;100982.81;5052379;28;20276;-55
2023/01/31 02:48:34;;;;;;;;;;;;;;;2.06;100.00;100981.16;5024446;28;19995;-56
2023/01/31 02:51:05;;;;;;;;;;;;;;;2.02;100.00;100980.34;5041190;28;19992;-55
2023/01/31 02:53:31;;;;;;;;;;;;;;;1.92;100.00;100983.75;5052204;28;19921;-55
2023/01/31 02:56:16;;;;;;;;;;;;;;;1.86;100.00;100981.25;5052009;28;20372;-54
2023/01/31 02:59:02;;;;;;;;;;;;;;;1.83;100.00;100984.66;5035000;28;19921;-55
2023/01/31 03:01:29;;;;;;;;;;;;;;;1.87;100.00;100991.41;5028953;28;19921;-55
2023/01/31 03:04:13;;;;;;;;;;;;;;;1.84;100.00;100996.50;5050434;28;19917;-55
2023/01/31 03:06:59;;;;;;;;;;;;;;;1.83;100.00;100996.50;5034329;28;19917;-55
2023/01/31 03:09:35;;;;;;;;;;;;;;;1.82;100.00;100999.88;5052085;28;20368;-55
2023/01/31 03:12:01;;;;;;;;;;;;;;;1.80;100.00;101007.50;5040750;28;19974;-55
2023/01/31 03:14:34;;;;;;;;;;;;;;;1.83;100.00;101001.59;5052602;28;19920;-55
2023/01/31 03:19:57;;;;;;;;;;;;;;;1.77;100.00;101020.19;5052499;28;20300;-58
2023/01/31 03:22:26;;;;;;;;;;;;;;;1.69;100.00;101017.69;5040600;28;19921;-55
2023/01/31 03:24:52;;;;;;;;;;;;;;;1.72;100.00;101020.19;5034008;28;19921;-57
2023/01/31 03:27:18;;;;;;;;;;;;;;;1.72;100.00;101021.91;5039459;28;19963;-54
2023/01/31 03:29:43;;;;;;;;;;;;;;;1.70;100.00;101021.91;5031301;28;19921;-55
2023/01/31 03:32:14;;;;;;;;;;;;;;;1.69;100.00;101025.31;5034235;28;19925;-55
2023/01/31 03:34:40;;;;;;;;;;;;;;;1.60;100.00;101035.44;5046572;28;19920;-55
2023/01/31 03:37:11;;;;;;;;;;;;;;;1.56;100.00;101027.03;5051491;28;20360;-56
2023/01/31 03:39:52;;;;;;;;;;;;;;;1.63;100.00;101029.56;5034204;28;19925;-55
2023/01/31 03:42:20;;;;;;;;;;;;;;;1.53;100.00;101039.72;5022997;28;19921;-55
2023/01/31 03:44:54;;;;;;;;;;;;;;;1.49;100.00;101047.31;5051987;28;19917;-54
2023/01/31 03:47:24;;;;;;;;;;;;;;;1.49;100.00;101044.78;5033832;28;19921;-55
2023/01/31 03:49:51;;;;;;;;;;;;;;;1.49;100.00;101049.84;5030313;28;19917;-60
2023/01/31 03:52:25;;;;;;;;;;;;;;;1.47;100.00;101046.50;5013587;28;20470;-55
2023/01/31 03:55:06;;;;;;;;;;;;;;;1.47;100.00;101049.03;5038031;28;20008;-54
2023/01/31 03:57:39;;;;;;;;;;;;;;;1.48;100.00;101051.56;5049305;28;19921;-55
2023/01/31 04:00:06;;;;;;;;;;;;;;;1.53;100.00;101054.09;5009068;28;20373;-56
2023/01/31 04:02:33;;;;;;;;;;;;;;;1.52;100.00;101055.75;5034017;28;20383;-55
2023/01/31 04:05:04;;;;;;;;;;;;;;;1.50;100.00;101052.41;5051871;28;20007;-54
2023/01/31 04:07:30;;;;;;;;;;;;;;;1.49;100.00;101055.78;5033178;28;19959;-56
2023/01/31 04:09:56;;;;;;;;;;;;;;;1.47;100.00;101057.47;5051225;28;19956;-55
2023/01/31 04:12:21;;;;;;;;;;;;;;;1.47;100.00;101049.03;5022436;28;20432;-55
2023/01/31 04:14:46;;;;;;;;;;;;;;;1.50;100.00;101052.41;5042436;28;20067;-55
2023/01/31 04:17:12;;;;;;;;;;;;;;;1.43;100.00;101049.00;5006738;28;19928;-55
2023/01/31 04:19:37;;;;;;;;;;;;;;;1.53;100.00;101044.78;5051682;28;20291;-54
2023/01/31 04:22:02;;;;;;;;;;;;;;;1.52;100.00;101044.78;5036206;28;19929;-55
2023/01/31 04:24:27;;;;;;;;;;;;;;;1.45;100.00;101033.78;5041996;28;19996;-54
2023/01/31 04:26:52;;;;;;;;;;;;;;;1.44;100.00;101039.75;5033213;28;20059;-55
2023/01/31 04:29:18;;;;;;;;;;;;;;;1.40;100.00;101038.91;5033451;28;20368;-54
2023/01/31 04:31:43;;;;;;;;;;;;;;;1.40;100.00;101033.81;5039905;28;19928;-55
2023/01/31 04:34:08;;;;;;;;;;;;;;;1.32;100.00;101027.09;5051266;28;19940;-54
2023/01/31 04:36:33;;;;;;;;;;;;;;;1.20;100.00;101027.94;5051200;28;19971;-55
2023/01/31 04:39:01;;;;;;;;;;;;;;;1.16;100.00;101024.53;5051372;28;20361;-55
2023/01/31 04:41:26;;;;;;;;;;;;;;;1.08;100.00;101014.41;5039519;28;19921;-54
2023/01/31 04:43:52;;;;;;;;;;;;;;;1.08;100.00;101011.03;5050562;28;19939;-55
2023/01/31 04:46:17;;;;;;;;;;;;;;;1.07;100.00;101010.19;5047837;28;19917;-54
2023/01/31 04:48:42;;;;;;;;;;;;;;;1.08;100.00;101011.88;5042189;28;19924;-55
2023/01/31 04:51:08;;;;;;;;;;;;;;;1.07;100.00;101004.28;5039596;28;20419;-55
2023/01/31 04:53:33;;;;;;;;;;;;;;;1.13;100.00;101009.34;5050860;28;19924;-54
2023/01/31 04:55:58;;;;;;;;;;;;;;;1.08;100.00;101004.28;5050095;28;19928;-55
2023/01/31 04:58:23;;;;;;;;;;;;;;;1.03;100.00;101000.91;5042222;28;19932;-54
2023/01/31 05:00:48;;;;;;;;;;;;;;;1.02;100.00;101005.97;5035826;28;19936;-55
2023/01/31 05:03:14;;;;;;;;;;;;;;;0.95;100.00;101000.06;5050578;28;20487;-55
2023/01/31 05:05:39;;;;;;;;;;;;;;;1.04;100.00;101011.88;5020170;28;20026;-55
2023/01/31 05:08:04;;;;;;;;;;;;;;;1.02;100.00;101005.97;5050918;28;19917;-56
2023/01/31 05:10:30;;;;;;;;;;;;;;;1.03;100.00;101008.50;5021253;28;19921;-55
2023/01/31 05:12:55;;;;;;;;;;;;;;;0.97;100.00;100993.31;5043269;28;20229;-55
2023/01/31 05:15:20;;;;;;;;;;;;;;;0.96;100.00;100997.53;5033178;28;19917;-55
2023/01/31 05:17:52;;;;;;;;;;;;;;;0.95;100.00;101000.91;5050838;28;20390;-55
2023/01/31 05:20:17;;;;;;;;;;;;;;;0.96;100.00;100996.69;5022789;28;19917;-55
2023/01/31 05:22:45;;;;;;;;;;;;;;;0.94;100.00;100991.63;5049447;28;19924;-54
2023/01/31 05:25:10;;;;;;;;;;;;;;;0.94;100.00;100990.78;5050568;28;19974;-54
2023/01/31 05:27:35;;;;;;;;;;;;;;;0.93;100.00;100989.94;5053234;28;19917;-55
2023/01/31 05:30:01;;;;;;;;;;;;;;;0.91;100.00;100989.09;5053004;28;20412;-56
2023/01/31 05:32:26;;;;;;;;;;;;;;;0.94;100.00;100994.16;5034165;28;19921;-55
2023/01/31 05:34:51;;;;;;;;;;;;;;;0.98;100.00;100999.22;5050032;28;20232;-54
2023/01/31 05:37:16;;;;;;;;;;;;;;;0.97;100.00;100995.84;5054030;28;19917;-54
2023/01/31 05:39:41;;;;;;;;;;;;;;;0.99;100.00;100998.38;5054354;28;20037;-55
2023/01/31 05:42:07;;;;;;;;;;;;;;;0.94;100.00;100994.16;5034021;28;20332;-55
2023/01/31 05:44:32;;;;;;;;;;;;;;;1.02;100.00;100999.22;5050308;28;19959;-55
2023/01/31 05:46:57;;;;;;;;;;;;;;;1.03;100.00;101005.97;5046332;28;19953;-54
2023/01/31 05:49:22;;;;;;;;;;;;;;;0.99;100.00;100996.66;5049993;28;19925;-54
2023/01/31 05:51:48;;;;;;;;;;;;;;;1.07;100.00;100989.09;5042395;28;20404;-54
2023/01/31 05:54:13;;;;;;;;;;;;;;;1.12;100.00;101000.06;5035571;28;20748;-54
2023/01/31 05:56:38;;;;;;;;;;;;;;;1.09;100.00;101003.44;5053425;28;20432;-55
2023/01/31 05:59:04;;;;;;;;;;;;;;;1.08;100.00;100993.28;5040308;28;19948;-55
2023/01/31 06:01:29;;;;;;;;;;;;;;;1.13;100.00;101001.75;5035870;28;20008;-55
2023/01/31 06:03:54;;;;;;;;;;;;;;;1.31;100.00;100993.25;5047418;28;19971;-55
2023/01/31 06:06:32;;;;;;;;;;;;;;;1.33;100.00;100983.97;5053501;28;19967;-56
2023/01/31 06:08:57;;;;;;;;;;;;;;;1.37;100.00;100983.09;5049457;28;19975;-54
2023/01/31 06:11:24;;;;;;;;;;;;;;;1.38;100.00;100976.38;5042509;28;20403;-54
2023/01/31 06:13:49;;;;;;;;;;;;;;;1.28;100.00;100983.97;5051595;28;19925;-55
2023/01/31 06:16:14;;;;;;;;;;;;;;;1.23;100.00;100984.84;5053058;28;19928;-55
2023/01/31 06:18:40;;;;;;;;;;;;;;;1.18;100.00;100982.31;5035255;28;19923;-55
2023/01/31 06:21:05;;;;;;;;;;;;;;;1.08;100.00;100985.69;5034602;28;19928;-55
2023/01/31 06:23:30;;;;;;;;;;;;;;;1.09;100.00;100993.31;5035715;28;19924;-55
2023/01/31 06:25:55;;;;;;;;;;;;;;;1.06;100.00;100993.28;5052590;28;20359;-55
2023/01/31 06:28:21;;;;;;;;;;;;;;;0.97;100.00;100993.31;5053013;28;19917;-55
2023/01/31 06:30:47;;;;;;;;;;;;;;;0.88;100.00;100996.69;5025582;28;20465;-55
2023/01/31 06:33:12;;;;;;;;;;;;;;;0.83;100.00;100992.47;5052339;28;19920;-55
2023/01/31 06:35:38;;;;;;;;;;;;;;;0.90;100.00;100989.09;5035441;28;19916;-54
2023/01/31 06:38:03;;;;;;;;;;;;;;;0.89;100.00;100995.00;5051451;28;19928;-55
2023/01/31 06:40:29;;;;;;;;;;;;;;;0.92;100.00;100995.84;5042474;28;20669;-55
2023/01/31 06:42:54;;;;;;;;;;;;;;;0.99;100.00;100999.22;5039260;28;19956;-55
2023/01/31 06:45:20;;;;;;;;;;;;;;;0.98;100.00;101000.06;5052830;28;20062;-55
2023/01/31 06:47:45;;;;;;;;;;;;;;;1.00;100.00;101002.59;5040668;28;19953;-55
2023/01/31 06:50:10;;;;;;;;;;;;;;;0.96;100.00;101004.28;5020533;28;19921;-55
2023/01/31 06:52:36;;;;;;;;;;;;;;;1.04;100.00;101009.34;5035489;28;19917;-55
2023/01/31 06:55:01;;;;;;;;;;;;;;;1.02;100.00;101016.97;5034083;28;20288;-55
2023/01/31 06:57:26;;;;;;;;;;;;;;;1.04;100.00;101010.22;5031088;28;19924;-55
2023/01/31 06:59:52;;;;;;;;;;;;;;;1.02;100.00;101005.97;5046217;28;19917;-56
2023/01/31 07:02:17;;;;;;;;;;;;;;;1.03;100.00;101010.19;5021873;28;19921;-56
2023/01/31 07:04:42;;;;;;;;;;;;;;;1.02;100.00;101011.88;5033431;28;19956;-56
2023/01/31 07:07:07;;;;;;;;;;;;;;;1.02;100.00;101011.03;5027837;28;19917;-56
2023/01/31 07:09:32;;;;;;;;;;;;;;;1.07;100.00;101012.72;5034385;28;20250;-56
2023/01/31 07:11:58;;;;;;;;;;;;;;;1.09;100.00;101018.66;5020679;28;20039;-56
2023/01/31 07:14:23;;;;;;;;;;;;;;;1.03;100.00;101011.06;5030823;28;19929;-56
2023/01/31 07:16:48;;;;;;;;;;;;;;;1.01;100.00;101022.88;5036822;28;19921;-56
2023/01/31 07:19:13;;;;;;;;;;;;;;;0.90;100.00;101016.97;5052852;28;20026;-55
2023/01/31 07:21:38;;;;;;;;;;;;;;;0.99;100.00;101018.66;5037211;28;19925;-56
2023/01/31 07:24:04;;;;;;;;;;;;;;;0.98;100.00;101017.81;5050340;28;19947;-55
2023/01/31 07:26:29;;;;;;;;;;;;;;;1.07;100.00;101019.50;5047317;28;20436;-55
2023/01/31 07:28:54;;;;;;;;;;;;;;;1.18;100.00;101005.13;5052357;28;20330;-57
2023/01/31 07:31:20;;;;;;;;;;;;;;;1.33;100.00;101018.59;5035976;28;19921;-58
2023/01/31 07:33:45;;;;;;;;;;;;;;;1.44;100.00;101020.28;5051929;28;19917;-56
2023/01/31 07:36:12;;;;;;;;;;;;;;;1.47;100.00;101027.03;5051451;28;19928;-56
2023/01/31 07:38:37;;;;;;;;;;;;;;;1.67;100.00;101029.53;5052006;28;19943;-56
2023/01/31 07:41:03;;;;;;;;;;;;;;;1.76;100.00;101026.97;5041161;28;19921;-55
2023/01/31 07:43:29;;;;;;;;;;;;;;;1.83;100.00;101029.50;5051056;28;19917;-55
2023/01/31 07:45:54;;;;;;;;;;;;;;;1.92;100.00;101022.69;5051339;28;19931;-56
2023/01/31 07:48:22;;;;;;;;;;;;;;;1.96;100.00;101010.84;5052061;28;19943;-56
2023/01/31 07:50:48;;;;;;;;;;;;;;;2.04;100.00;101026.03;5018378;28;20365;-56
2023/01/31 07:53:13;;;;;;;;;;;;;;;2.14;100.00;101025.13;5045758;28;19920;-56
2023/01/31 07:55:39;;;;;;;;;;;;;;;2.13;100.00;101020.88;5051571;28;19969;-57
2023/01/31 07:58:04;;;;;;;;;;;;;;;2.21;100.00;101020.88;5044809;28;19945;-56
2023/01/31 08:03:31;;;;;;;;;;;;;;;2.15;100.00;101018.38;5031600;28;20072;-56
2023/01/31 08:05:56;;;;;;;;;;;;;;;2.11;100.00;101015.00;5030265;28;19920;-56
2023/01/31 08:08:22;;;;;;;;;;;;;;;1.94;100.00;101010.00;5035661;28;20323;-56
2023/01/31 08:10:47;;;;;;;;;;;;;;;1.94;100.00;101015.91;5035850;28;20407;-55
2023/01/31 08:13:12;;;;;;;;;;;;;;;1.88;100.00;101002.41;5047809;28;20007;-56
2023/01/31 08:15:37;;;;;;;;;;;;;;;1.85;100.00;101005.81;5037369;28;20435;-56
2023/01/31 08:18:02;;;;;;;;;;;;;;;1.85;100.00;101000.72;5047157;28;19917;-56
2023/01/31 08:20:29;;;;;;;;;;;;;;;1.83;100.00;101014.28;5038220;28;19947;-56
2023/01/31 08:22:57;;;;;;;;;;;;;;;1.69;100.00;101025.31;5038785;28;19952;-56
2023/01/31 08:25:27;;;;;;;;;;;;;;;1.66;100.00;101030.38;5038382;28;20328;-57
2023/01/31 08:27:53;;;;;;;;;;;;;;;1.69;100.00;101037.97;5026964;28;19928;-56
2023/01/31 08:30:18;;;;;;;;;;;;;;;1.75;100.00;101044.75;5023808;28;20300;-55
2023/01/31 08:32:44;;;;;;;;;;;;;;;1.73;100.00;101062.47;5036375;28;19928;-55
2023/01/31 08:35:09;;;;;;;;;;;;;;;1.81;100.00;101059.09;5029771;28;19917;-56
2023/01/31 08:37:34;;;;;;;;;;;;;;;1.80;100.00;101065.00;5044317;28;20368;-56
2023/01/31 08:39:59;;;;;;;;;;;;;;;1.70;100.00;101054.03;5051070;28;19917;-55
2023/01/31 08:42:24;;;;;;;;;;;;;;;1.92;100.00;101062.44;5038977;28;19970;-57
2023/01/31 08:44:49;;;;;;;;;;;;;;;2.03;100.00;101058.16;5051064;28;19950;-57
2023/01/31 08:47:15;;;;;;;;;;;;;;;2.25;100.00;101051.28;5029895;28;19960;-57
2023/01/31 08:49:40;;;;;;;;;;;;;;;2.44;100.00;101042.75;5028910;28;19971;-56
2023/01/31 08:52:05;;;;;;;;;;;;;;;2.61;100.00;101033.34;5031900;28;19920;-57
2023/01/31 08:54:30;;;;;;;;;;;;;;;2.67;100.00;101025.66;5049953;28;20013;-56
2023/01/31 08:56:55;;;;;;;;;;;;;;;2.84;100.00;101028.09;5050875;28;19924;-56
2023/01/31 08:59:20;;;;;;;;;;;;;;;3.06;100.00;101017.75;5037360;28;20329;-56
2023/01/31 09:01:46;;;;;;;;;;;;;;;3.20;100.00;101013.38;5032749;28;19940;-56
2023/01/31 09:04:11;;;;;;;;;;;;;;;3.09;100.00;101014.31;5030258;28;19917;-55
2023/01/31 09:06:37;;;;;;;;;;;;;;;2.92;100.00;101015.31;5049475;28;19916;-55
2023/01/31 09:09:02;;;;;;;;;;;;;;;2.91;100.00;101016.16;5055031;28;19921;-56
2023/01/31 09:11:29;;;;;;;;;;;;;;;3.00;100.00;101021.19;5035143;28;20012;-55
2023/01/31 09:13:54;;;;;;;;;;;;;;;2.90;100.00;101014.47;5044182;28;20015;-56
2023/01/31 09:16:19;;;;;;;;;;;;;;;3.07;100.00;101014.34;5046573;28;20020;-56
2023/01/31 09:18:45;;;;;;;;;;;;;;;3.12;100.00;101019.41;5051410;28;19928;-56
2023/01/31 09:21:18;;;;;;;;;;;;;;;3.17;100.00;101022.72;5036669;28;19922;-56
2023/01/31 09:23:44;;;;;;;;;;;;;;;3.20;100.00;101013.38;5041431;28;19960;-55
2023/01/31 09:26:10;;;;;;;;;;;;;;;3.20;100.00;101020.16;5036075;28;20077;-56
2023/01/31 09:28:35;;;;;;;;;;;;;;;3.20;100.00;101030.31;5054117;28;19956;-57
2023/01/31 09:31:04;;;;;;;;;;;;;;;3.27;100.00;101038.75;5041706;28;19990;-57
2023/01/31 09:33:30;;;;;;;;;;;;;;;3.34;100.00;101046.31;5049046;28;19923;-55
2023/01/31 09:35:56;;;;;;;;;;;;;;;3.23;100.00;101048.94;5036110;28;19917;-56
2023/01/31 09:38:22;;;;;;;;;;;;;;;3.13;100.00;101056.69;5035494;28;20012;-56
2023/01/31 09:40:48;;;;;;;;;;;;;;;3.29;100.00;101053.13;5044157;28;20404;-55
2023/01/31 09:43:14;;;;;;;;;;;;;;;3.31;100.00;101056.53;5050881;28;19936;-56
2023/01/31 09:45:42;;;;;;;;;;;;;;;3.23;100.00;101054.03;5036146;28;19994;-57
2023/01/31 09:48:12;;;;;;;;;;;;;;;3.38;100.00;101037.78;5035339;28;19925;-57
2023/01/31 09:50:42;;;;;;;;;;;;;;;3.33;100.00;101029.34;5043847;28;20039;-56
2023/01/31 09:53:20;;;;;;;;;;;;;;;3.18;100.00;101032.06;5051326;28;20000;-56
2023/01/31 09:56:04;;;;;;;;;;;;;;;3.23;100.00;101031.13;5036120;28;20023;-56
2023/01/31 09:58:32;;;;;;;;;;;;;;;3.29;100.00;101012.44;5034389;28;19929;-56
2023/01/31 10:01:15;;;;;;;;;;;;;;;3.21;100.00;101011.66;5039640;28;19956;-55
2023/01/31 10:04:01;;;;;;;;;;;;;;;3.15;100.00;101017.66;5053998;28;19963;-56
2023/01/31 10:06:34;;;;;;;;;;;;;;;3.02;100.00;101021.16;5041961;28;19916;-56
2023/01/31 10:09:02;;;;;;;;;;;;;;;3.24;100.00;101026.91;5053524;28;20391;-56
2023/01/31 10:11:33;;;;;;;;;;;;;;;3.29;100.00;101037.88;5042645;28;19933;-56
2023/01/31 10:14:04;;;;;;;;;;;;;;;3.38;100.00;101034.41;5039514;28;19952;-56
2023/01/31 10:16:40;;;;;;;;;;;;;;;3.51;100.00;101027.47;5053303;28;19993;-55
2023/01/31 10:19:11;;;;;;;;;;;;;;;3.50;100.00;101020.72;5053477;28;19920;-56
2023/01/31 10:21:40;;;;;;;;;;;;;;;3.62;100.00;101014.66;5030248;28;19972;-56
2023/01/31 10:24:17;;;;;;;;;;;;;;;3.62;100.00;101012.97;5049234;28;19928;-57
2023/01/31 10:26:44;;;;;;;;;;;;;;;3.70;100.00;101007.78;5052766;28;19921;-55
2023/01/31 10:29:09;;;;;;;;;;;;;;;3.80;100.00;101005.97;5053203;28;19916;-56
2023/01/31 10:31:43;;;;;;;;;;;;;;;3.83;100.00;101018.66;5032903;28;19925;-56
2023/01/31 10:34:17;;;;;;;;;;;;;;;3.69;100.00;101027.28;5039163;28;19924;-56
2023/01/31 10:36:42;;;;;;;;;;;;;;;3.77;100.00;101017.03;5052904;28;19917;-56
2023/01/31 10:39:17;;;;;;;;;;;;;;;3.89;100.00;101023.69;5053268;28;19924;-56
2023/01/31 10:41:57;;;;;;;;;;;;;;;3.99;100.00;101009.97;5037362;28;19925;-57
2023/01/31 10:44:25;;;;;;;;;;;;;;;3.89;100.00;101005.84;5052785;28;19917;-59
2023/01/31 10:46:54;;;;;;;;;;;;;;;3.80;100.00;100991.53;5053119;28;19916;-57
2023/01/31 10:49:21;;;;;;;;;;;;;;;3.96;100.00;100965.91;5034824;28;19920;-57
2023/01/31 10:51:52;;;;;;;;;;;;;;;4.08;100.00;100959.78;5021566;28;20016;-57
2023/01/31 10:54:32;;;;;;;;;;;;;;;4.11;100.00;100955.50;5048210;28;19947;-56
2023/01/31 10:56:57;;;;;;;;;;;;;;;4.09;100.00;100958.94;5041724;28;19920;-57
2023/01/31 10:59:25;;;;;;;;;;;;;;;3.95;100.00;100954.88;5046651;28;20241;-55
2023/01/31 11:01:50;;;;;;;;;;;;;;;3.93;100.00;100946.44;5023246;28;20032;-60
2023/01/31 11:04:24;;;;;;;;;;;;;;;3.80;100.00;100953.38;5036051;28;19963;-57
2023/01/31 11:06:50;;;;;;;;;;;;;;;3.90;100.00;100955.81;5034710;28;19937;-57
2023/01/31 11:09:15;;;;;;;;;;;;;;;3.78;100.00;100944.06;5037507;28;19939;-57
2023/01/31 11:11:55;;;;;;;;;;;;;;;3.76;100.00;100936.47;5041242;28;20007;-57
2023/01/31 11:14:20;;;;;;;;;;;;;;;3.78;100.00;100918.63;5050437;28;19920;-57
2023/01/31 11:16:46;;;;;;;;;;;;;;;3.80;100.00;100899.91;5052160;28;20341;-56
2023/01/31 11:19:19;;;;;;;;;;;;;;;3.86;100.00;100887.13;5052036;28;19916;-57
2023/01/31 11:21:48;;;;;;;;;;;;;;;3.70;100.00;100883.94;5023937;28;19986;-56
2023/01/31 11:24:24;;;;;;;;;;;;;;;3.70;100.00;100889.03;5050220;28;19918;-57
2023/01/31 11:26:51;;;;;;;;;;;;;;;3.71;100.00;100884.78;5034023;28;19999;-56
2023/01/31 11:29:19;;;;;;;;;;;;;;;3.67;100.00;100875.50;5031203;28;19927;-57
2023/01/31 11:31:46;;;;;;;;;;;;;;;3.76;100.00;100877.06;5012681;28;20455;-57
2023/01/31 11:34:25;;;;;;;;;;;;;;;3.90;100.00;100871.81;5029785;28;19917;-57
2023/01/31 11:36:50;;;;;;;;;;;;;;;4.10;100.00;100863.88;5049821;28;19925;-57
2023/01/31 11:39:33;;;;;;;;;;;;;;;4.27;100.00;100850.88;5052204;28;20315;-57
2023/01/31 11:42:24;;;;;;;;;;;;;;;4.29;100.00;100860.16;5027999;28;20011;-56
2023/01/31 11:44:56;;;;;;;;;;;;;;;4.29;100.00;100852.53;5045275;28;19931;-56
2023/01/31 11:47:27;;;;;;;;;;;;;;;4.55;100.00;100845.31;5038190;28;19918;-56
2023/01/31 11:49:52;;;;;;;;;;;;;;;5.00;100.00;100837.69;5048475;28;19917;-57
2023/01/31 11:52:19;;;;;;;;;;;;;;;5.15;100.00;100834.81;5036685;28;19928;-57
2023/01/31 11:54:56;;;;;;;;;;;;;;;5.24;100.00;100835.50;5051663;28;19920;-56
2023/01/31 11:57:38;;;;;;;;;;;;;;;5.26;100.00;100841.41;5050767;28;19928;-57
2023/01/31 12:00:05;;;;;;;;;;;;;;;5.15;100.00;100827.16;5005932;28;19921;-56
2023/01/31 12:02:36;;;;;;;;;;;;;;;5.29;100.00;100814.13;5007438;28;19956;-58
2023/01/31 12:05:12;;;;;;;;;;;;;;;5.12;100.00;100808.53;5051784;28;19917;-57
2023/01/31 12:07:43;;;;;;;;;;;;;;;5.01;100.00;100811.28;5033032;28;19921;-56
2023/01/31 12:10:27;;;;;;;;;;;;;;;5.21;100.00;100807.50;5023485;28;19948;-57
2023/01/31 12:12:55;;;;;;;;;;;;;;;5.13;100.00;100807.66;5040597;28;19923;-56
2023/01/31 12:15:20;;;;;;;;;;;;;;;5.06;100.00;100788.25;5039509;28;19916;-58
2023/01/31 12:17:48;;;;;;;;;;;;;;;4.83;100.00;100802.31;5042643;28;19939;-56
2023/01/31 12:20:27;;;;;;;;;;;;;;;4.90;100.00;100819.16;5023252;28;19913;-57
2023/01/31 12:23:05;;;;;;;;;;;;;;;4.93;100.00;100823.38;5041810;28;20319;-56
2023/01/31 12:25:42;;;;;;;;;;;;;;;4.74;100.00;100810.97;5023726;28;19925;-58
2023/01/31 12:28:31;;;;;;;;;;;;;;;4.79;100.00;100801.53;5030616;28;20337;-57
2023/01/31 12:31:05;;;;;;;;;;;;;;;4.60;100.00;100792.53;5020107;28;19944;-57
2023/01/31 12:33:48;;;;;;;;;;;;;;;4.79;100.00;100773.50;5031073;28;19921;-57
2023/01/31 12:36:23;;;;;;;;;;;;;;;4.84;100.00;100766.59;5029777;28;19972;-57
2023/01/31 12:39:01;;;;;;;;;;;;;;;4.90;100.00;100763.09;5035415;28;20011;-57
2023/01/31 12:41:30;;;;;;;;;;;;;;;4.94;100.00;100764.69;5032628;28;20054;-57
2023/01/31 12:44:15;;;;;;;;;;;;;;;4.98;100.00;100763.75;5050685;28;19921;-58
2023/01/31 12:46:56;;;;;;;;;;;;;;;5.00;100.00;100758.63;5034916;28;20273;-58